createdAt,value
2017-10-14T00:02:36.809Z,62.79
2017-10-14T00:17:35.222Z,62.95
2017-10-14T00:32:35.477Z,63.30
2017-10-14T00:47:37.349Z,63.71
2017-10-14T01:02:37.027Z,64.19
2017-10-14T01:17:34.441Z,64.40
2017-10-14T01:32:35.449Z,64.71
2017-10-14T01:47:37.400Z,64.89
2017-10-14T02:02:35.688Z,65.18
2017-10-14T02:17:34.285Z,65.43
2017-10-14T02:32:34.247Z,65.55
2017-10-14T02:47:34.634Z,65.97
2017-10-14T03:02:34.776Z,66.42
2017-10-14T03:17:37.037Z,66.75
2017-10-14T03:32:34.956Z,66.87
2017-10-14T03:47:36.879Z,66.87
2017-10-14T04:02:36.876Z,66.74
2017-10-14T04:17:35.279Z,66.43
2017-10-14T04:32:37.219Z,66.41
2017-10-14T04:47:37.728Z,66.76
2017-10-14T05:02:35.083Z,66.41
2017-10-14T05:17:34.072Z,64.99
2017-10-14T05:32:34.216Z,62.13
2017-10-14T05:47:34.034Z,58.54
2017-10-14T06:02:34.391Z,54.78
2017-10-14T06:17:48.651Z,50.64
2017-10-14T06:32:34.268Z,48.02
2017-10-14T06:47:38.257Z,42.85
2017-10-14T07:02:34.387Z,44.66
2017-10-14T07:17:35.146Z,43.64
2017-10-14T07:32:35.220Z,40.97
2017-10-14T07:47:35.222Z,38.41
2017-10-14T08:02:35.237Z,37.84
2017-10-14T08:17:34.070Z,37.44
2017-10-14T08:32:33.989Z,38.30
2017-10-14T08:47:34.058Z,36.14
2017-10-14T09:02:33.985Z,34.29
2017-10-14T09:17:34.364Z,34.52
2017-10-14T09:32:35.587Z,34.58
2017-10-14T09:47:34.273Z,33.58
2017-10-14T10:02:34.372Z,35.64
2017-10-14T10:17:35.098Z,34.29
2017-10-14T10:32:37.121Z,33.32
2017-10-14T10:47:35.077Z,37.08
2017-10-14T11:02:35.073Z,33.66
2017-10-14T11:17:33.888Z,34.07
2017-10-14T11:32:33.964Z,34.47
2017-10-14T11:47:33.867Z,35.03
2017-10-14T12:02:33.893Z,35.88
2017-10-14T12:17:34.193Z,36.23
2017-10-14T12:32:34.192Z,36.56
2017-10-14T12:47:36.668Z,38.44
2017-10-14T13:02:34.210Z,39.43
2017-10-14T13:17:35.220Z,39.61
2017-10-14T13:32:34.978Z,40.71
2017-10-14T13:47:33.854Z,41.18
2017-10-14T14:02:36.798Z,42.05
2017-10-14T14:17:36.585Z,42.61
2017-10-14T14:32:36.305Z,43.53
2017-10-14T14:47:35.306Z,44.54
2017-10-14T15:02:36.380Z,45.44
2017-10-14T15:17:35.355Z,46.60
2017-10-14T15:32:37.398Z,47.79
2017-10-14T15:47:35.237Z,48.97
2017-10-14T16:02:35.177Z,50.17
2017-10-14T16:17:36.700Z,51.28
2017-10-14T16:32:34.171Z,52.44
2017-10-14T16:47:36.603Z,53.33
2017-10-14T17:02:35.160Z,53.81
2017-10-14T17:17:36.425Z,54.14
2017-10-14T17:32:35.071Z,54.63
2017-10-14T17:47:35.096Z,55.13
2017-10-14T18:02:34.977Z,55.66
2017-10-14T18:17:37.571Z,56.25
2017-10-14T18:32:36.430Z,56.82
2017-10-14T18:47:36.366Z,57.45
2017-10-14T19:02:35.342Z,57.78
2017-10-14T19:17:37.050Z,58.12
2017-10-14T19:32:36.265Z,58.17
2017-10-14T19:47:36.714Z,58.41
2017-10-14T20:02:34.660Z,58.91
2017-10-14T20:17:35.267Z,59.38
2017-10-14T20:32:37.124Z,59.72
2017-10-14T20:47:35.030Z,59.94
2017-10-14T21:02:35.036Z,60.37
2017-10-14T21:17:37.714Z,60.97
2017-10-14T21:32:36.752Z,61.33
2017-10-14T21:47:34.429Z,61.86
2017-10-14T22:02:36.494Z,62.46
2017-10-14T22:17:36.414Z,62.59
2017-10-14T22:32:36.363Z,62.78
2017-10-14T22:47:36.317Z,63.05
2017-10-14T23:02:35.242Z,63.24
2017-10-14T23:17:36.265Z,63.33
2017-10-14T23:32:36.294Z,63.50
2017-10-14T23:47:35.240Z,63.67
